Airfield :
LOGIN :

Register | Disclaimer

   EN    FR    IT 

 










Legend :    VFR   Marginal VFR   IFR   Intensive IFR   Very Intensive IFR
Visi :
Ceiling :
>= 8 km
>= 3000ft
5 to 8 km
1000 to 3000 ft
1500m to 5 km
500 to 1000 ft
800 to 1500m
200 to 500 ft
< 800m
< 200 ft
Symbols :   Thunderstorms  Fog  Heavy snow  Heavy precipitations  Wind > 20 kt
SIGMETs :     Misc.  Thunderstorms  Icing  Turbulence  Mountain Waves  Volcanic Ashes







- Airport Elevation : 290 ft
- IATA code : ACI
- Download approach charts


EGJA - Alderney

CURRENT METAR :
  • 201650Z VRB02KT 4000 -SHRA FEW005 BKN012CB 03/03 Q1003

EXPIRED METARs :
  • 201620Z 05005KT 020V080 4000 -SHRA FEW005 BKN010CB 03/02 Q1003
  • 201550Z 10005KT 060V120 8000 -SHRA FEW005 BKN020CB 03/02 Q1002
  • 201520Z 08005KT 8000 -SHRA SCT005 BKN015CB 03/02 Q1003
  • 201450Z 09007KT 050V130 8000 -SHRA SCT005 BKN015CB 04/03 Q1003
  • 201420Z 09006KT 050V130 6000 -SHRA SCT005 BKN015CB 04/03 Q1003

TAF TAF EGJA
Valid from the 20 at 15:00 until the 21 at 00:00 UTC


201403Z 2015/2024 12008KT 9999 FEW015CB BKN025
TEMPO 2015/2024 5000 SHRAGS BKN015CB
PROB30
TEMPO 2015/2017 3000 +TSRAGS BKN012CB
No reported NOTAMs for that airfield.



MET'MAP, your aeronautical weather chart ! - Copyright ORBIFLY December 2007 - Disclaimer

ORBIFLY MET'MAP TEAM :

Programming & Development : Alexandra Zaïnal
Concept & Development : Baudouin d'Aumeries
Co-Development & Prog : Marc-Olivier Méhu
Technical & hardware support : Manuel Goepfert

Contact : metmap@orbifly.com




SOURCES & CREDITS :

   NOAA